Terminal Aerodrome Forecast
Issued by NWS Binghamton, NY

Home | Current Version | Previous Version | Text Only | Print | Product List | Glossary On
Versions: 1 2 3 4 5 6 7 8 9 10 11 12 13 14 15 16 17 18
000
FTUS41 KBGM 262300
TAFAVP
TAF
KAVP 262330Z 2700/2724 32008KT P6SM SCT008 OVC015
      TEMPO 2700/2702 3SM -SHRA BR OVC008
     FM270200 VRB03KT P6SM OVC015
     FM271400 34008KT P6SM OVC025
     FM271900 34008KT P6SM SCT025 BKN035=

USA.gov is the U.S. government's official web portal to all federal, state and local government web resources and services.